Time;durP1;ratioP1;P1;durP2;ratioP2;P2;SDS_P1;SDS_P2;PMS_P1;PMS_P2;Temp;Humidity;BMP_temperature;BMP_pressure;BME280_temperature;BME280_humidity;BME280_pressure;Samples;Min_cycle;Max_cycle;Signal;HPM_P1;HPM_P2
2023/09/10 00:01:20;;;;;;;;;;;;;;;24.63;34.92;99065.09;5033861;28;20388;-75
2023/09/10 00:03:45;;;;;;;;;;;;;;;24.62;35.02;99068.81;5034164;28;20299;-75
2023/09/10 00:06:11;;;;;;;;;;;;;;;24.62;34.89;99073.31;5034062;28;20361;-75
2023/09/10 00:08:36;;;;;;;;;;;;;;;24.59;35.02;99065.69;5033671;28;20397;-76
2023/09/10 00:11:02;;;;;;;;;;;;;;;24.59;34.91;99069.22;5032388;28;19979;-76
2023/09/10 00:13:27;;;;;;;;;;;;;;;24.58;34.83;99066.75;5033123;28;20304;-76
2023/09/10 00:15:52;;;;;;;;;;;;;;;24.55;34.74;99065.25;5032001;28;20395;-75
2023/09/10 00:18:18;;;;;;;;;;;;;;;24.53;35.06;99062.78;5032242;28;19970;-75
2023/09/10 00:20:43;;;;;;;;;;;;;;;24.52;34.87;99060.31;5032362;28;20324;-76
2023/09/10 00:23:08;;;;;;;;;;;;;;;24.50;34.98;99055.19;5032649;28;19928;-75
2023/09/10 00:25:34;;;;;;;;;;;;;;;24.49;34.88;99052.72;5032339;28;20418;-75
2023/09/10 00:27:59;;;;;;;;;;;;;;;24.47;34.83;99050.25;5032287;28;19979;-75
2023/09/10 00:30:26;;;;;;;;;;;;;;;24.46;34.81;99056.59;5015579;28;20011;-75
2023/09/10 00:32:51;;;;;;;;;;;;;;;24.44;34.89;99045.31;5031979;28;19913;-75
2023/09/10 00:35:16;;;;;;;;;;;;;;;24.43;35.02;99053.50;5031999;28;19939;-75
2023/09/10 00:37:42;;;;;;;;;;;;;;;24.41;34.93;99051.03;5033372;28;19917;-75
2023/09/10 00:40:07;;;;;;;;;;;;;;;24.41;34.94;99050.22;5031929;28;20000;-75
2023/09/10 00:42:32;;;;;;;;;;;;;;;24.39;35.05;99043.22;5015747;28;19920;-75
2023/09/10 00:44:58;;;;;;;;;;;;;;;24.39;34.90;99047.75;5033145;28;19913;-75
2023/09/10 00:47:23;;;;;;;;;;;;;;;24.37;34.94;99049.81;5033193;28;20296;-75
2023/09/10 00:49:49;;;;;;;;;;;;;;;24.36;34.80;99042.81;5033192;28;19920;-75
2023/09/10 00:52:14;;;;;;;;;;;;;;;24.37;34.91;99044.47;5015769;28;19913;-75
2023/09/10 00:54:39;;;;;;;;;;;;;;;24.38;34.80;99052.28;5032118;28;20004;-76
2023/09/10 00:57:05;;;;;;;;;;;;;;;24.39;34.77;99045.91;5031067;28;19913;-75
2023/09/10 00:59:30;;;;;;;;;;;;;;;24.40;34.65;99038.75;5031634;28;19913;-76
2023/09/10 01:01:55;;;;;;;;;;;;;;;24.41;34.57;99039.56;5014849;28;19913;-75
2023/09/10 01:04:21;;;;;;;;;;;;;;;24.43;34.59;99043.69;5015157;28;19919;-75
2023/09/10 01:06:47;;;;;;;;;;;;;;;24.43;34.63;99051.69;5015105;28;19967;-75
2023/09/10 01:09:12;;;;;;;;;;;;;;;24.43;34.82;99037.50;5031473;28;19963;-75
2023/09/10 01:11:58;;;;;;;;;;;;;;;24.45;34.49;99043.44;5031472;28;19939;-74
2023/09/10 01:14:32;;;;;;;;;;;;;;;24.44;34.44;99042.63;5032766;28;19913;-75
2023/09/10 01:17:10;;;;;;;;;;;;;;;24.46;34.51;99048.59;5032995;28;19913;-75
2023/09/10 01:19:46;;;;;;;;;;;;;;;24.49;34.34;99042.03;5031798;28;19913;-75
2023/09/10 01:22:17;;;;;;;;;;;;;;;24.48;34.35;99035.88;5031522;28;19983;-75
2023/09/10 01:24:49;;;;;;;;;;;;;;;24.48;34.43;99045.72;5032572;28;19916;-75
2023/09/10 01:27:15;;;;;;;;;;;;;;;24.48;34.21;99035.03;5031451;28;19913;-75
2023/09/10 01:29:40;;;;;;;;;;;;;;;24.49;34.21;99034.03;5031374;28;19987;-75
2023/09/10 01:32:07;;;;;;;;;;;;;;;24.49;34.07;99034.03;5014786;28;20376;-75
2023/09/10 01:34:34;;;;;;;;;;;;;;;24.50;33.96;99038.34;5032347;28;19921;-75
2023/09/10 01:37:02;;;;;;;;;;;;;;;24.49;34.16;99029.50;5031312;28;19913;-75
2023/09/10 01:39:36;;;;;;;;;;;;;;;24.50;34.05;99041.84;5031723;28;19967;-75
2023/09/10 01:42:02;;;;;;;;;;;;;;;24.50;33.83;99038.34;5031586;28;20415;-75
2023/09/10 01:44:28;;;;;;;;;;;;;;;24.48;33.80;99035.88;5031318;28;20293;-75
2023/09/10 01:46:53;;;;;;;;;;;;;;;24.49;33.94;99036.69;5032435;28;19917;-75
2023/09/10 01:49:18;;;;;;;;;;;;;;;24.50;33.74;99038.34;5031618;28;19920;-75
2023/09/10 01:51:43;;;;;;;;;;;;;;;24.49;33.85;99034.03;5031021;28;19913;-75
2023/09/10 01:54:09;;;;;;;;;;;;;;;24.50;33.88;99035.69;5032151;28;19940;-75
2023/09/10 01:56:34;;;;;;;;;;;;;;;24.50;33.94;99030.34;5032135;28;19967;-75
2023/09/10 01:58:59;;;;;;;;;;;;;;;24.49;33.62;99029.50;5014022;28;19913;-75
2023/09/10 02:01:25;;;;;;;;;;;;;;;24.51;33.69;99027.47;5032035;28;19936;-75
2023/09/10 02:03:50;;;;;;;;;;;;;;;24.51;33.73;99022.16;5031921;28;19913;-75
2023/09/10 02:06:15;;;;;;;;;;;;;;;24.51;33.69;99021.31;5032135;28;19917;-76
2023/09/10 02:08:41;;;;;;;;;;;;;;;24.51;33.68;99030.16;5034556;28;19917;-76
2023/09/10 02:11:06;;;;;;;;;;;;;;;24.58;34.73;99024.06;5018489;28;19924;-79
2023/09/10 02:13:31;;;;;;;;;;;;;;;24.60;34.71;99027.31;5018289;28;19917;-79
2023/09/10 02:15:57;;;;;;;;;;;;;;;24.59;34.21;99031.00;5034950;28;19927;-79
2023/09/10 02:18:22;;;;;;;;;;;;;;;24.58;34.11;99018.72;5035307;28;19921;-79
2023/09/10 02:20:47;;;;;;;;;;;;;;;24.57;34.43;99009.88;5036201;28;19920;-80
2023/09/10 02:23:13;;;;;;;;;;;;;;;24.57;34.22;99020.53;5035059;28;19913;-80
2023/09/10 02:25:38;;;;;;;;;;;;;;;24.55;34.34;99019.91;5018025;28;19971;-79
2023/09/10 02:28:04;;;;;;;;;;;;;;;24.56;34.06;99016.22;5036051;28;19920;-80
2023/09/10 02:30:29;;;;;;;;;;;;;;;24.56;34.16;99033.06;5034679;28;19913;-80
2023/09/10 02:32:55;;;;;;;;;;;;;;;24.56;34.10;99041.06;5018251;28;20293;-79
2023/09/10 02:35:20;;;;;;;;;;;;;;;24.58;34.23;99043.53;5036052;28;20032;-80
2023/09/10 02:37:46;;;;;;;;;;;;;;;24.58;34.03;99034.72;5036031;28;19936;-79
2023/09/10 02:40:11;;;;;;;;;;;;;;;24.56;33.94;99037.56;5034319;28;19913;-79
2023/09/10 02:42:37;;;;;;;;;;;;;;;24.56;33.83;99038.41;5036147;28;19913;-79
2023/09/10 02:45:03;;;;;;;;;;;;;;;24.55;33.85;99041.25;5017915;28;20381;-79
2023/09/10 02:47:28;;;;;;;;;;;;;;;24.54;33.79;99037.75;5035631;28;19913;-79
2023/09/10 02:49:54;;;;;;;;;;;;;;;24.54;33.93;99039.59;5033965;28;19919;-79
2023/09/10 02:52:19;;;;;;;;;;;;;;;24.53;33.77;99041.44;5034039;28;19922;-79
2023/09/10 02:54:45;;;;;;;;;;;;;;;24.52;33.81;99049.66;5031252;28;19967;-79
2023/09/10 02:57:10;;;;;;;;;;;;;;;24.49;33.61;99040.19;5014150;28;19913;-79
2023/09/10 02:59:35;;;;;;;;;;;;;;;24.45;33.47;99044.28;4997649;28;19914;-78
2023/09/10 03:02:01;;;;;;;;;;;;;;;24.42;33.35;99049.22;5015513;28;19925;-79
2023/09/10 03:04:26;;;;;;;;;;;;;;;24.37;33.32;99061.28;5015612;28;20372;-78
2023/09/10 03:06:51;;;;;;;;;;;;;;;24.33;33.25;99054.69;4997418;28;19917;-79
2023/09/10 03:09:17;;;;;;;;;;;;;;;24.29;33.08;99058.78;4997743;28;20304;-79
2023/09/10 03:11:42;;;;;;;;;;;;;;;24.25;33.37;99059.38;5014061;28;20395;-79
2023/09/10 03:14:08;;;;;;;;;;;;;;;24.21;33.34;99053.63;5014122;28;19972;-79
2023/09/10 03:16:33;;;;;;;;;;;;;;;24.18;33.38;99054.03;4997954;28;19921;-79
2023/09/10 03:18:58;;;;;;;;;;;;;;;24.15;33.43;99049.91;5014821;28;19914;-80
2023/09/10 03:21:24;;;;;;;;;;;;;;;24.15;33.22;99057.09;4997400;28;19948;-79
2023/09/10 03:23:49;;;;;;;;;;;;;;;24.12;33.35;99055.63;5015220;28;19920;-79
2023/09/10 03:26:15;;;;;;;;;;;;;;;24.12;33.29;99058.28;5013849;28;20265;-79
2023/09/10 03:28:40;;;;;;;;;;;;;;;24.10;33.39;99063.00;5014018;28;19964;-79
2023/09/10 03:31:06;;;;;;;;;;;;;;;24.09;33.26;99060.53;5013910;28;20021;-79
2023/09/10 03:33:31;;;;;;;;;;;;;;;24.07;33.25;99060.75;5014097;28;19999;-79
2023/09/10 03:35:56;;;;;;;;;;;;;;;24.07;33.52;99059.91;5013524;28;20391;-79
2023/09/10 03:38:22;;;;;;;;;;;;;;;24.04;33.40;99063.78;4997361;28;20363;-79
2023/09/10 03:40:47;;;;;;;;;;;;;;;24.04;33.27;99061.13;5013732;28;19936;-79
2023/09/10 03:43:13;;;;;;;;;;;;;;;24.03;33.33;99064.81;5013830;28;19968;-80
2023/09/10 03:45:38;;;;;;;;;;;;;;;24.01;33.55;99067.66;5013447;28;19913;-80
2023/09/10 03:48:04;;;;;;;;;;;;;;;24.01;33.48;99066.84;5014765;28;19936;-80
2023/09/10 03:50:29;;;;;;;;;;;;;;;24.00;33.43;99068.72;4996834;28;20335;-80
2023/09/10 03:52:55;;;;;;;;;;;;;;;23.99;33.40;99059.03;5014634;28;19920;-80
2023/09/10 03:55:20;;;;;;;;;;;;;;;24.00;33.46;99050.03;4981348;28;19913;-80
2023/09/10 03:57:45;;;;;;;;;;;;;;;24.00;33.30;99054.53;5013515;28;19913;-80
2023/09/10 04:00:11;;;;;;;;;;;;;;;24.06;33.37;99050.25;4996822;28;19920;-80
2023/09/10 04:02:36;;;;;;;;;;;;;;;24.13;33.17;99056.44;4997115;28;20330;-80
2023/09/10 04:05:01;;;;;;;;;;;;;;;24.27;32.86;99060.00;4996799;28;19917;-80
2023/09/10 04:07:27;;;;;;;;;;;;;;;24.48;32.56;99072.41;4996802;28;19917;-80
2023/09/10 04:09:52;;;;;;;;;;;;;;;24.75;32.36;99076.03;4980551;28;19931;-80
2023/09/10 04:12:17;;;;;;;;;;;;;;;25.07;31.66;99077.13;4996719;28;19918;-80
2023/09/10 04:14:43;;;;;;;;;;;;;;;25.48;30.90;99090.56;4996533;28;20013;-80
2023/09/10 04:17:08;;;;;;;;;;;;;;;25.90;30.40;99091.16;4996560;28;20305;-79
2023/09/10 04:19:33;;;;;;;;;;;;;;;26.34;29.32;99090.44;4996510;28;19921;-79
2023/09/10 04:21:59;;;;;;;;;;;;;;;26.83;28.54;99090.88;5012945;28;19917;-78
2023/09/10 04:24:24;;;;;;;;;;;;;;;27.33;28.17;99092.06;5014699;28;19953;-80
2023/09/10 04:26:49;;;;;;;;;;;;;;;27.84;27.35;99095.56;4996518;28;20377;-80
2023/09/10 04:29:15;;;;;;;;;;;;;;;28.46;26.43;99084.78;5012684;28;19913;-80
2023/09/10 04:31:41;;;;;;;;;;;;;;;29.02;25.71;99099.78;5012710;28;20001;-80
2023/09/10 04:34:06;;;;;;;;;;;;;;;29.54;24.73;99103.78;5012686;28;20300;-80
2023/09/10 04:36:31;;;;;;;;;;;;;;;29.77;24.40;99092.22;5012250;28;19922;-79
2023/09/10 04:38:57;;;;;;;;;;;;;;;29.42;24.95;99101.88;5013109;28;19920;-81
2023/09/10 04:41:22;;;;;;;;;;;;;;;29.15;25.31;99098.75;4996753;28;19957;-80
2023/09/10 04:43:47;;;;;;;;;;;;;;;29.85;24.28;99101.84;5012669;28;19913;-80
2023/09/10 04:46:13;;;;;;;;;;;;;;;30.69;23.13;99108.75;5013953;28;19913;-82
2023/09/10 04:48:38;;;;;;;;;;;;;;;31.29;22.60;99112.81;4996321;28;20388;-82
2023/09/10 04:51:03;;;;;;;;;;;;;;;31.85;21.85;99113.75;4995758;28;19967;-80
2023/09/10 04:53:29;;;;;;;;;;;;;;;32.14;21.45;99107.44;5012327;28;19960;-81
2023/09/10 04:55:54;;;;;;;;;;;;;;;32.22;21.05;99107.81;4980103;28;20339;-80
2023/09/10 04:58:20;;;;;;;;;;;;;;;32.08;21.45;99112.75;5012512;28;20434;-81
2023/09/10 05:00:45;;;;;;;;;;;;;;;32.87;20.42;99108.03;4996016;28;19961;-81
2023/09/10 05:03:10;;;;;;;;;;;;;;;33.24;20.06;99104.66;5013600;28;19944;-80
2023/09/10 05:05:36;;;;;;;;;;;;;;;33.61;19.85;99097.63;5012365;28;19984;-81
2023/09/10 05:08:01;;;;;;;;;;;;;;;34.19;18.96;99103.97;5014077;28;19975;-80
2023/09/10 05:10:26;;;;;;;;;;;;;;;34.55;19.07;99101.41;5013654;28;19917;-80
2023/09/10 05:12:52;;;;;;;;;;;;;;;34.86;18.55;99093.41;4995506;28;19917;-80
2023/09/10 05:15:17;;;;;;;;;;;;;;;35.22;18.45;99098.88;4995637;28;19920;-75
2023/09/10 05:17:42;;;;;;;;;;;;;;;35.56;18.26;99102.94;5012217;28;19917;-72
2023/09/10 05:20:08;;;;;;;;;;;;;;;35.91;17.88;99104.00;5012775;28;19996;-72
2023/09/10 05:22:33;;;;;;;;;;;;;;;36.11;17.63;99103.13;4995238;28;19921;-73
2023/09/10 05:24:59;;;;;;;;;;;;;;;36.28;17.66;99100.94;4995326;28;20020;-72
2023/09/10 05:27:24;;;;;;;;;;;;;;;36.50;17.77;99100.56;5011520;28;19949;-73
2023/09/10 05:29:49;;;;;;;;;;;;;;;36.71;17.45;99101.25;5011425;28;19913;-73
2023/09/10 05:32:14;;;;;;;;;;;;;;;36.92;17.43;99101.16;4995062;28;19981;-73
2023/09/10 05:34:40;;;;;;;;;;;;;;;37.17;17.06;99105.59;5011710;28;19922;-73
2023/09/10 05:37:05;;;;;;;;;;;;;;;37.39;17.46;99107.91;5012983;28;19956;-73
2023/09/10 05:39:30;;;;;;;;;;;;;;;37.55;17.40;99108.56;5011769;28;19913;-73
2023/09/10 05:41:56;;;;;;;;;;;;;;;37.72;17.14;99104.63;4995996;28;19913;-74
2023/09/10 05:44:21;;;;;;;;;;;;;;;37.90;16.99;99114.00;4982898;28;19913;-71
2023/09/10 05:46:46;;;;;;;;;;;;;;;38.07;16.74;99106.16;5015457;28;19921;-71
2023/09/10 05:49:12;;;;;;;;;;;;;;;38.24;16.99;99102.16;4999022;28;19917;-73
2023/09/10 05:51:37;;;;;;;;;;;;;;;38.43;16.69;99104.94;5015617;28;19913;-73
2023/09/10 05:54:03;;;;;;;;;;;;;;;38.45;16.74;99109.00;5016004;28;20395;-73
2023/09/10 05:56:28;;;;;;;;;;;;;;;38.58;16.96;99115.63;5016398;28;19914;-72
2023/09/10 05:58:54;;;;;;;;;;;;;;;38.72;16.58;99122.00;5016638;28;19941;-72
2023/09/10 06:01:19;;;;;;;;;;;;;;;38.86;16.97;99127.56;5015190;28;20395;-72
2023/09/10 06:03:45;;;;;;;;;;;;;;;38.96;16.64;99129.31;4998746;28;19913;-73
2023/09/10 06:06:10;;;;;;;;;;;;;;;39.07;16.57;99130.81;4982604;28;20376;-73
2023/09/10 06:08:35;;;;;;;;;;;;;;;39.17;16.65;99132.59;5014929;28;19961;-73
2023/09/10 06:11:01;;;;;;;;;;;;;;;39.28;16.63;99135.16;5015004;28;19917;-73
2023/09/10 06:13:28;;;;;;;;;;;;;;;39.41;16.24;99140.66;5014556;28;19920;-72
2023/09/10 06:15:53;;;;;;;;;;;;;;;39.47;16.00;99144.09;5014812;28;19917;-73
2023/09/10 06:18:18;;;;;;;;;;;;;;;39.56;15.88;99142.34;5014773;28;19971;-72
2023/09/10 06:20:44;;;;;;;;;;;;;;;39.65;15.85;99145.19;4998333;28;20365;-73
2023/09/10 06:23:09;;;;;;;;;;;;;;;39.75;16.20;99144.22;4998290;28;19977;-73
2023/09/10 06:25:35;;;;;;;;;;;;;;;39.82;16.14;99149.28;5016006;28;19913;-73
2023/09/10 06:28:00;;;;;;;;;;;;;;;39.80;16.35;99150.41;4998323;28;19914;-73
2023/09/10 06:30:25;;;;;;;;;;;;;;;39.89;16.09;99152.44;4982123;28;19980;-73
2023/09/10 06:32:51;;;;;;;;;;;;;;;39.96;15.81;99156.38;4997940;28;19921;-73
2023/09/10 06:35:16;;;;;;;;;;;;;;;40.11;16.00;99163.50;5014373;28;20438;-72
2023/09/10 06:37:42;;;;;;;;;;;;;;;40.27;15.94;99158.53;4998644;28;20012;-72
2023/09/10 06:40:07;;;;;;;;;;;;;;;40.34;16.13;99160.88;5014786;28;19920;-72
2023/09/10 06:42:33;;;;;;;;;;;;;;;40.38;15.79;99164.63;4998003;28;19917;-73
2023/09/10 06:44:58;;;;;;;;;;;;;;;40.48;16.30;99160.88;4998577;28;19914;-73
2023/09/10 06:47:23;;;;;;;;;;;;;;;40.62;16.08;99156.19;5014076;28;20000;-73
2023/09/10 06:49:49;;;;;;;;;;;;;;;40.61;14.97;99154.59;5014309;28;19917;-71
2023/09/10 06:52:14;;;;;;;;;;;;;;;40.68;14.21;99160.44;5014168;28;19961;-71
2023/09/10 06:54:39;;;;;;;;;;;;;;;40.69;15.39;99161.25;4996876;28;19913;-72
2023/09/10 06:57:05;;;;;;;;;;;;;;;40.75;15.32;99164.69;4997816;28;19913;-73
2023/09/10 06:59:30;;;;;;;;;;;;;;;40.81;14.25;99163.47;5015499;28;20000;-73
2023/09/10 07:01:56;;;;;;;;;;;;;;;40.83;14.82;99164.78;5014817;28;19913;-72
2023/09/10 07:04:21;;;;;;;;;;;;;;;40.92;14.75;99164.09;5013901;28;20026;-73
2023/09/10 07:06:47;;;;;;;;;;;;;;;41.02;14.64;99164.66;5005854;28;19923;-74
2023/09/10 07:09:13;;;;;;;;;;;;;;;41.03;14.48;99155.31;5017309;28;19987;-73
2023/09/10 07:11:38;;;;;;;;;;;;;;;41.12;13.88;99151.84;5029176;28;19924;-73
2023/09/10 07:14:03;;;;;;;;;;;;;;;41.21;13.47;99156.28;5007594;28;20000;-73
2023/09/10 07:16:29;;;;;;;;;;;;;;;41.32;13.95;99161.53;5022424;28;20311;-72
2023/09/10 07:18:54;;;;;;;;;;;;;;;41.54;13.11;99157.97;5014805;28;19914;-73
2023/09/10 07:21:19;;;;;;;;;;;;;;;41.90;14.03;99154.31;5012352;28;19968;-74
2023/09/10 07:23:44;;;;;;;;;;;;;;;42.43;13.70;99153.41;4997343;28;20012;-72
2023/09/10 07:26:10;;;;;;;;;;;;;;;43.42;12.66;99157.53;5029070;28;19913;-76
2023/09/10 07:28:35;;;;;;;;;;;;;;;44.72;11.55;99155.38;5032829;28;19970;-77
2023/09/10 07:31:02;;;;;;;;;;;;;;;45.83;11.01;99150.34;5032493;28;19940;-78
2023/09/10 07:33:27;;;;;;;;;;;;;;;46.73;9.59;99157.91;5032057;28;19967;-76
2023/09/10 07:35:52;;;;;;;;;;;;;;;46.86;9.19;99156.72;5016159;28;19944;-74
2023/09/10 07:38:18;;;;;;;;;;;;;;;47.74;8.50;99152.44;5033739;28;19920;-75
2023/09/10 07:40:43;;;;;;;;;;;;;;;47.96;8.37;99148.22;5015684;28;19924;-75
2023/09/10 07:43:08;;;;;;;;;;;;;;;48.01;8.22;99150.72;5015761;28;19913;-75
2023/09/10 07:45:34;;;;;;;;;;;;;;;48.39;8.35;99145.69;5011711;28;20312;-75
2023/09/10 07:47:59;;;;;;;;;;;;;;;48.24;8.26;99152.88;5013848;28;19913;-75
2023/09/10 07:50:27;;;;;;;;;;;;;;;46.13;9.20;99146.56;4995997;28;19913;-81
2023/09/10 07:52:53;;;;;;;;;;;;;;;44.38;9.85;99151.72;5012176;28;19925;-80
2023/09/10 07:55:18;;;;;;;;;;;;;;;43.41;10.23;99146.88;5022263;28;19923;-80
2023/09/10 07:57:43;;;;;;;;;;;;;;;42.88;10.30;99144.13;5031555;28;20344;-78
2023/09/10 08:00:09;;;;;;;;;;;;;;;42.55;10.71;99144.56;5015767;28;19916;-78
2023/09/10 08:02:35;;;;;;;;;;;;;;;42.32;11.19;99140.28;5015718;28;19971;-77
2023/09/10 08:05:00;;;;;;;;;;;;;;;42.12;10.69;99146.00;5015322;28;19948;-78
2023/09/10 08:07:25;;;;;;;;;;;;;;;41.86;11.09;99136.88;5028898;28;19975;-77
2023/09/10 08:09:51;;;;;;;;;;;;;;;41.74;11.41;99143.75;5000691;28;19927;-77
2023/09/10 08:12:16;;;;;;;;;;;;;;;41.67;11.18;99137.06;4996063;28;19920;-74
2023/09/10 08:14:41;;;;;;;;;;;;;;;41.57;11.46;99136.22;5011661;28;19914;-75
2023/09/10 08:17:06;;;;;;;;;;;;;;;41.54;11.50;99141.53;5011545;28;19982;-77
2023/09/10 08:19:32;;;;;;;;;;;;;;;41.49;11.65;99149.88;5012022;28;20684;-77
2023/09/10 08:21:57;;;;;;;;;;;;;;;41.42;11.23;99144.84;4995891;28;19913;-77
2023/09/10 08:24:23;;;;;;;;;;;;;;;41.17;11.23;99154.47;4978518;28;19960;-76
2023/09/10 08:26:48;;;;;;;;;;;;;;;41.15;11.53;99145.72;5011676;28;19936;-75
2023/09/10 08:29:13;;;;;;;;;;;;;;;41.21;11.82;99148.06;5011948;28;19920;-76
2023/09/10 08:31:38;;;;;;;;;;;;;;;41.02;11.76;99150.16;4995115;28;19937;-77
2023/09/10 08:34:04;;;;;;;;;;;;;;;40.96;11.96;99149.47;4995925;28;20308;-77
2023/09/10 08:36:29;;;;;;;;;;;;;;;40.82;11.96;99149.47;5012998;28;20403;-77
2023/09/10 08:38:55;;;;;;;;;;;;;;;40.93;11.83;99146.53;4995461;28;19913;-77
2023/09/10 08:41:32;;;;;;;;;;;;;;;41.08;11.93;99140.69;5012494;28;19913;-75
2023/09/10 08:43:58;;;;;;;;;;;;;;;41.20;11.95;99137.41;5011668;28;19920;-78
2023/09/10 08:46:29;;;;;;;;;;;;;;;41.30;11.91;99144.59;5011346;28;20303;-77
2023/09/10 08:48:55;;;;;;;;;;;;;;;41.35;12.04;99137.06;5011780;28;19921;-76
2023/09/10 08:51:20;;;;;;;;;;;;;;;41.38;12.17;99143.84;5011279;28;19914;-77
2023/09/10 08:53:45;;;;;;;;;;;;;;;41.33;12.11;99133.03;4995037;28;19964;-76
2023/09/10 08:56:10;;;;;;;;;;;;;;;41.25;11.65;99131.00;4995098;28;19913;-76
2023/09/10 08:58:36;;;;;;;;;;;;;;;41.22;12.20;99135.16;5012308;28;19913;-76
2023/09/10 09:01:02;;;;;;;;;;;;;;;41.22;12.00;99127.75;5011218;28;19913;-76
2023/09/10 09:03:29;;;;;;;;;;;;;;;41.30;11.97;99134.44;5011505;28;19920;-76
2023/09/10 09:05:54;;;;;;;;;;;;;;;41.12;11.78;99135.41;5011366;28;20004;-77
2023/09/10 09:08:22;;;;;;;;;;;;;;;41.06;12.50;99129.25;5011320;28;19967;-76
2023/09/10 09:10:47;;;;;;;;;;;;;;;40.99;11.94;99134.34;4994809;28;19918;-76
2023/09/10 09:13:12;;;;;;;;;;;;;;;40.85;12.13;99127.00;5010844;28;19917;-77
2023/09/10 09:15:38;;;;;;;;;;;;;;;40.85;12.69;99116.06;4994322;28;19914;-77
2023/09/10 09:18:03;;;;;;;;;;;;;;;40.90;12.18;99120.59;5010542;28;20403;-76
2023/09/10 09:20:29;;;;;;;;;;;;;;;40.69;12.62;99121.03;4994961;28;19914;-77
2023/09/10 09:22:55;;;;;;;;;;;;;;;40.76;12.83;99117.06;4995271;28;19955;-77
2023/09/10 09:25:20;;;;;;;;;;;;;;;40.72;12.56;99111.38;5008791;28;19913;-78
2023/09/10 09:27:45;;;;;;;;;;;;;;;40.69;12.44;99106.53;4994261;28;19920;-77
2023/09/10 09:30:11;;;;;;;;;;;;;;;40.09;12.71;99102.88;5010468;28;19913;-75
2023/09/10 09:32:37;;;;;;;;;;;;;;;39.17;13.01;99102.56;5011668;28;20384;-75
2023/09/10 09:35:03;;;;;;;;;;;;;;;38.89;13.47;99101.59;5010754;28;19917;-77
2023/09/10 09:37:34;;;;;;;;;;;;;;;38.93;13.35;99101.81;5001934;28;19924;-75
2023/09/10 09:40:00;;;;;;;;;;;;;;;38.87;13.25;99106.53;5014140;28;20007;-75
2023/09/10 09:42:26;;;;;;;;;;;;;;;38.81;13.26;99097.63;5013943;28;20008;-76
2023/09/10 09:44:51;;;;;;;;;;;;;;;38.85;13.58;99095.09;5031379;28;20301;-75
2023/09/10 09:47:16;;;;;;;;;;;;;;;38.75;13.29;99098.00;5013800;28;19920;-75
2023/09/10 09:49:43;;;;;;;;;;;;;;;38.44;13.46;99085.56;5013246;28;20024;-76
2023/09/10 09:52:09;;;;;;;;;;;;;;;38.09;13.48;99092.25;5029656;28;19987;-77
2023/09/10 09:54:34;;;;;;;;;;;;;;;38.05;14.11;99088.47;5013921;28;20380;-76
2023/09/10 09:56:59;;;;;;;;;;;;;;;38.24;13.55;99088.53;5031417;28;19913;-77
2023/09/10 09:59:24;;;;;;;;;;;;;;;38.03;13.74;99088.75;5029946;28;19917;-78
2023/09/10 10:01:50;;;;;;;;;;;;;;;38.27;13.65;99068.88;5030321;28;19932;-79
2023/09/10 10:04:18;;;;;;;;;;;;;;;38.42;13.78;99076.06;5030626;28;19913;-77
2023/09/10 10:06:43;;;;;;;;;;;;;;;38.40;13.97;99084.53;5014010;28;19924;-76
2023/09/10 10:09:08;;;;;;;;;;;;;;;38.40;13.83;99083.69;5029995;28;19917;-79
2023/09/10 10:11:34;;;;;;;;;;;;;;;38.50;13.89;99089.03;5013656;28;19920;-79
2023/09/10 10:13:59;;;;;;;;;;;;;;;38.41;13.56;99082.59;5013301;28;19952;-76
2023/09/10 10:16:26;;;;;;;;;;;;;;;38.43;13.88;99069.47;5030445;28;20007;-77
2023/09/10 10:18:51;;;;;;;;;;;;;;;38.23;13.88;99073.31;5013644;28;19917;-76
2023/09/10 10:21:17;;;;;;;;;;;;;;;37.79;14.71;99081.38;5029779;28;19913;-78
2023/09/10 10:23:42;;;;;;;;;;;;;;;37.37;14.98;99079.31;5013673;28;19921;-77
2023/09/10 10:26:08;;;;;;;;;;;;;;;36.90;16.02;99087.84;5013813;28;19979;-76
2023/09/10 10:28:42;;;;;;;;;;;;;;;36.34;17.08;99093.56;5032940;28;19920;-78
2023/09/10 10:31:09;;;;;;;;;;;;;;;35.47;18.74;99098.06;5017519;28;20425;-81
2023/09/10 10:33:36;;;;;;;;;;;;;;;35.00;19.87;99090.16;5033668;28;19913;-83
2023/09/10 10:36:07;;;;;;;;;;;;;;;34.64;20.44;99104.44;5016861;28;20012;-78
2023/09/10 10:38:33;;;;;;;;;;;;;;;34.36;20.93;99092.94;5017102;28;19966;-78
2023/09/10 10:40:59;;;;;;;;;;;;;;;34.21;21.35;99090.16;5016589;28;19917;-79
2023/09/10 10:43:29;;;;;;;;;;;;;;;34.07;21.30;99098.75;5033081;28;20008;-79
2023/09/10 10:45:56;;;;;;;;;;;;;;;34.01;21.82;99088.97;5017472;28;19913;-78
2023/09/10 10:48:23;;;;;;;;;;;;;;;33.89;22.13;99093.78;5033059;28;19913;-79
2023/09/10 10:50:48;;;;;;;;;;;;;;;33.76;22.30;99095.03;5016835;28;19928;-77
2023/09/10 10:53:20;;;;;;;;;;;;;;;33.63;22.66;99087.34;5033356;28;19913;-78
2023/09/10 10:55:46;;;;;;;;;;;;;;;33.54;22.50;99084.31;5016817;28;20364;-77
2023/09/10 10:58:12;;;;;;;;;;;;;;;33.46;22.90;99079.38;5017003;28;19913;-80
2023/09/10 11:00:37;;;;;;;;;;;;;;;33.30;22.82;99105.50;5033899;28;19920;-79
2023/09/10 11:03:13;;;;;;;;;;;;;;;33.10;23.04;99082.59;5016792;28;19917;-79
2023/09/10 11:05:53;;;;;;;;;;;;;;;32.96;23.07;99074.06;5032764;28;20019;-81
2023/09/10 11:08:25;;;;;;;;;;;;;;;32.76;23.12;99088.19;5033433;28;20345;-79
2023/09/10 11:10:50;;;;;;;;;;;;;;;32.42;23.38;99072.13;5032713;28;20368;-80
2023/09/10 11:13:16;;;;;;;;;;;;;;;32.35;23.89;99070.69;5032721;28;19920;-76
2023/09/10 11:16:01;;;;;;;;;;;;;;;32.38;23.58;99076.38;5032333;28;19917;-76
2023/09/10 11:18:39;;;;;;;;;;;;;;;32.15;23.84;99077.47;5030360;28;20006;-75
2023/09/10 11:21:05;;;;;;;;;;;;;;;32.02;23.94;99051.59;5033668;28;19913;-79
2023/09/10 11:23:31;;;;;;;;;;;;;;;31.95;23.82;99063.69;5046270;28;19998;-78
2023/09/10 11:26:14;;;;;;;;;;;;;;;31.85;24.20;99050.84;5032389;28;19963;-76
2023/09/10 11:28:47;;;;;;;;;;;;;;;31.68;24.18;99053.59;5032372;28;19913;-77
2023/09/10 11:31:31;;;;;;;;;;;;;;;31.59;24.56;99038.88;5026783;28;19917;-78
2023/09/10 11:33:58;;;;;;;;;;;;;;;31.62;24.68;99041.91;5013708;28;20373;-80
2023/09/10 11:36:27;;;;;;;;;;;;;;;31.52;24.86;99053.31;4996314;28;19979;-77
2023/09/10 11:38:54;;;;;;;;;;;;;;;31.36;25.20;99035.28;4995946;28;19963;-78
2023/09/10 11:41:19;;;;;;;;;;;;;;;31.35;24.93;99025.56;5011722;28;20434;-78
2023/09/10 11:43:44;;;;;;;;;;;;;;;31.21;24.88;99035.84;4996145;28;20004;-73
2023/09/10 11:46:10;;;;;;;;;;;;;;;31.23;24.88;99028.31;5012406;28;19913;-81
2023/09/10 11:48:35;;;;;;;;;;;;;;;31.12;24.64;99031.91;5012695;28;19961;-80
2023/09/10 11:51:01;;;;;;;;;;;;;;;30.81;25.13;99034.06;5014966;28;19913;-80
2023/09/10 11:53:27;;;;;;;;;;;;;;;30.84;25.20;99028.19;5013314;28;19913;-80
2023/09/10 11:55:52;;;;;;;;;;;;;;;30.65;25.34;99017.63;5013863;28;19917;-79
2023/09/10 11:58:18;;;;;;;;;;;;;;;30.65;25.63;99031.09;4997276;28;19971;-79
2023/09/10 12:00:44;;;;;;;;;;;;;;;30.74;25.72;99025.31;4997057;28;20380;-80
2023/09/10 12:03:09;;;;;;;;;;;;;;;30.64;25.63;99015.97;5013960;28;19920;-80
2023/09/10 12:05:35;;;;;;;;;;;;;;;30.59;26.20;99015.09;4997140;28;20008;-78
2023/09/10 12:08:01;;;;;;;;;;;;;;;30.74;26.42;99020.75;5014857;28;19917;-78
2023/09/10 12:10:27;;;;;;;;;;;;;;;30.77;26.63;99022.94;5013164;28;19917;-77
2023/09/10 12:12:52;;;;;;;;;;;;;;;30.85;26.44;99011.78;4996656;28;19917;-76
2023/09/10 12:15:17;;;;;;;;;;;;;;;30.99;26.32;99006.09;4996853;28;19914;-78
2023/09/10 12:17:42;;;;;;;;;;;;;;;31.08;26.19;99001.94;4996748;28;20008;-80
2023/09/10 12:20:09;;;;;;;;;;;;;;;31.22;26.10;99005.13;5012971;28;19913;-78
2023/09/10 12:22:34;;;;;;;;;;;;;;;31.35;25.66;99001.28;4996385;28;19913;-80
2023/09/10 12:24:59;;;;;;;;;;;;;;;31.38;25.83;99006.19;5012977;28;19964;-78
2023/09/10 12:27:25;;;;;;;;;;;;;;;31.31;25.99;99000.97;5013376;28;20020;-78
2023/09/10 12:29:50;;;;;;;;;;;;;;;31.28;26.16;99001.47;5012863;28;19913;-78
2023/09/10 12:32:15;;;;;;;;;;;;;;;31.35;26.04;98999.38;4996181;28;19944;-79
2023/09/10 12:34:41;;;;;;;;;;;;;;;31.43;26.39;99000.03;5012558;28;19956;-77
2023/09/10 12:37:06;;;;;;;;;;;;;;;31.54;26.14;98991.88;4996278;28;19920;-77
2023/09/10 12:39:34;;;;;;;;;;;;;;;31.65;25.81;98992.03;5012636;28;19917;-77
2023/09/10 12:42:03;;;;;;;;;;;;;;;31.74;25.60;98990.53;5012885;28;19913;-78